Latest Coastal Weather Observations for Stenhouse Bay

IDS60701

Issued at 4:35 pm CDT Sunday 26 October 2014 (issued every 10 minutes, with the page automatically refreshed every 10 minutes)

About coastal observations | Map of coastal stations | Coastal observations for SA | Marine services | Other Formats
Station Details ID: 022049 Name: STENHOUSE BAY Lat: -35.28 Lon: 136.94 Height: 42.0 m
Data from the previous 72 hours. | See also: Recent months at Stenhouse Bay
Date/Time
CDT
Temp

°C
Wind Pressure Rain
since 9am
mm
Weather Cloud Vis
km
Sea
Height
m
Swell
Dir
 
Speed
knots
Gust
knots
hPa Trend Height
m
Period
s
Dir
26/04:30pm 26.4 NW 9 16 1005.7 - 2.8 - - - - - - -
26/04:00pm 25.5 N 7 12 1005.7 - 2.8 - - - - - - -
26/03:30pm 24.1 N 10 13 1005.7 - 2.8 - - - - - - -
26/03:00pm 23.4 N 11 16 1006.4 - 2.8 Recent precip. - - - - - -
26/02:30pm 21.4 N 10 13 1006.6 - 2.8 - - - - - - -
26/02:00pm 21.1 NE 10 14 1006.8 - 1.6 - - - - - - -
26/01:30pm 19.3 NE 12 15 1007.3 - 1.6 - - - - - - -
26/01:00pm 17.6 ENE 11 14 1008.5 - 1.6 - - - - - - -
26/12:30pm 17.8 ESE 3 5 1010.4 - 1.6 - - - - - - -
26/12:00pm 17.9 ESE 10 11 1010.3 - 0.2 Rain - - - - - -
26/11:30am 19.1 SSE 10 15 1011.1 - 0.0 - - - - - - -
26/11:00am 23.8 N 10 14 1010.2 - 0.0 - - - - - - -
26/10:30am 19.7 N 8 12 1009.8 - 0.0 - - - - - - -
26/10:00am 17.6 ENE 10 12 1009.5 - 0.0 - - - - - - -
26/09:30am 17.0 NE 10 13 1009.6 - 0.0 - - - - - - -
26/09:00am 16.6 NE 10 13 1010.2 - 0.2 - - - - - - -
26/08:30am 16.2 NE 9 12 1010.5 - 0.2 - - - - - - -
26/08:00am 15.6 NE 13 17 1010.7 - 0.2 - - - - - - -
26/07:30am 15.1 E 13 16 1011.1 - 0.2 - - - - - - -
26/07:00am 15.0 SE 10 14 1012.6 - 0.2 - - - - - - -
26/06:30am 14.7 ESE 6 8 1013.8 - 0.2 - - - - - - -
26/06:00am 14.4 N 5 8 1014.2 - 0.0 - - - - - - -
26/05:46am 14.5 NNW 5 8 1015.9 - 0.0 - - - - - - -
26/05:30am 14.6 NE 5 8 1013.9 - 0.0 - - - - - - -
26/05:00am 14.5 E 8 11 1012.5 - 0.0 - - - - - - -
26/04:30am 14.4 ESE 10 13 1011.8 - 0.0 - - - - - - -
26/04:00am 14.3 E 11 13 1012.1 - 0.0 - - - - - - -
26/03:30am 14.4 E 10 14 1012.3 - 0.0 - - - - - - -
26/03:00am 14.4 E 10 13 1012.6 - 0.0 - - - - - - -
26/02:30am 14.6 E 10 14 1012.9 - 0.0 - - - - - - -
26/02:00am 14.8 E 10 14 1013.2 - 0.0 - - - - - - -
26/01:30am 14.8 E 11 15 1013.6 - 0.0 - - - - - - -
26/01:00am 15.1 E 12 15 1013.9 - 0.0 - - - - - - -
26/12:30am 15.1 E 10 13 1014.6 - 0.0 - - - - - - -
26/12:00am 15.3 E 10 14 1014.8 - 0.0 - - - - - - -
 
Date/Time
CDT
Temp

°C
Wind Pressure Rain
since 9am
mm
Weather Cloud Vis
km
Sea
Height
m
Swell
Dir
 
Speed
knots
Gust
knots
hPa Trend Height
m
Period
s
Dir
25/11:30pm 15.5 E 12 16 1014.7 - 0.0 - - - - - - -
25/11:00pm 15.5 E 8 11 1015.2 - 0.0 - - - - - - -
25/10:30pm 15.3 E 7 10 1015.6 - 0.0 - - - - - - -
25/10:00pm 15.0 ESE 7 8 1015.8 - 0.0 - - - - - - -
25/09:30pm 15.0 SSE 4 5 1016.1 - 0.0 - - - - - - -
25/09:00pm 15.1 S 6 7 1015.7 - 0.0 - - - - - - -
25/08:30pm 15.3 S 11 13 1015.9 - 0.0 - - - - - - -
25/08:00pm 15.4 S 12 14 1015.7 - 0.0 - - - - - - -
25/07:30pm 15.7 SW 10 14 1016.0 - 0.0 - - - - - - -
25/07:00pm 16.7 WSW 9 13 1016.0 - 0.0 - - - - - - -
25/06:30pm 16.7 SW 10 13 1015.8 - 0.0 - - - - - - -
25/06:00pm 17.8 SW 10 14 1015.7 - 0.0 - - - - - - -
25/05:30pm 17.5 SW 10 13 1015.8 - 0.0 - - - - - - -
25/05:00pm 18.5 SW 10 13 1015.6 - 0.0 - - - - - - -
25/04:30pm 18.8 SW 10 13 1015.5 - 0.0 - - - - - - -
25/04:00pm 18.8 SW 11 14 1015.6 - 0.0 - - - - - - -
25/03:30pm 18.8 SW 9 12 1015.9 - 0.0 - - - - - - -
25/03:00pm 18.9 SW 9 11 1016.1 - 0.0 - - - - - - -
25/02:30pm 18.9 SW 8 10 1016.3 - 0.0 - - - - - - -
25/02:00pm 18.9 SW 8 11 1016.6 - 0.0 - - - - - - -
25/01:30pm 18.6 SSW 7 10 1016.9 - 0.0 - - - - - - -
25/01:00pm 18.8 S 8 10 1016.8 - 0.0 - - - - - - -
25/12:30pm 18.4 S 8 10 1017.4 - 0.0 - - - - - - -
25/12:00pm 18.6 S 7 9 1017.7 - 0.0 - - - - - - -
25/11:30am 17.7 S 7 9 1018.1 - 0.0 - - - - - - -
25/11:00am 17.5 S 6 7 1018.0 - 0.0 - - - - - - -
25/10:30am 16.9 S 5 7 1018.1 - 0.0 - - - - - - -
25/10:00am 16.7 S 4 5 1018.0 - 0.0 - - - - - - -
25/09:30am 16.1 S 4 6 1018.1 - 0.0 - - - - - - -
25/09:00am 15.5 SSE 3 5 1018.4 - 0.0 - - - - - - -
25/08:30am 15.4 SSE 4 6 1018.6 - 0.0 - - - - - - -
25/08:00am 15.0 S 5 7 1018.4 - 0.0 - - - - - - -
25/07:30am 14.9 S 6 8 1017.9 - 0.0 - - - - - - -
25/07:00am 14.4 SSE 7 9 1017.7 - 0.0 - - - - - - -
25/06:30am 14.3 SSE 7 9 1017.0 - 0.0 - - - - - - -
25/06:00am 14.4 SSE 8 10 1016.7 - 0.0 - - - - - - -
25/05:30am 14.3 SSE 9 13 1016.4 - 0.0 - - - - - - -
25/05:00am 14.3 SSE 10 12 1016.2 - 0.0 - - - - - - -
25/04:30am 14.2 SSE 9 11 1015.9 - 0.0 - - - - - - -
25/04:00am 14.3 S 10 12 1015.9 - 0.0 - - - - - - -
25/03:30am 14.4 S 8 10 1015.7 - 0.0 - - - - - - -
25/03:00am 14.8 S 8 10 1015.5 - 0.0 - - - - - - -
25/02:30am 14.8 SE 10 13 1015.4 - 0.0 - - - - - - -
25/02:00am 14.7 ESE 12 15 1015.5 - 0.0 - - - - - - -
25/01:30am 14.8 ESE 11 13 1015.6 - 0.0 - - - - - - -
25/01:00am 14.9 E 9 11 1016.0 - 0.0 - - - - - - -
25/12:30am 14.8 ESE 8 10 1016.2 - 0.0 - - - - - - -
25/12:00am 14.9 SE 10 14 1016.2 - 0.0 - - - - - - -
 
Date/Time
CDT
Temp

°C
Wind Pressure Rain
since 9am
mm
Weather Cloud Vis
km
Sea
Height
m
Swell
Dir
 
Speed
knots
Gust
knots
hPa Trend Height
m
Period
s
Dir
24/11:30pm 14.9 SE 10 13 1016.5 - 0.0 - - - - - - -
24/11:00pm 15.1 SE 10 13 1016.6 - 0.0 - - - - - - -
24/10:30pm 15.4 SE 10 13 1016.6 - 0.0 - - - - - - -
24/10:00pm 15.7 SSE 8 12 1016.1 - 0.0 - - - - - - -
24/09:30pm 15.8 SE 9 14 1015.6 - 0.0 - - - - - - -
24/09:00pm 16.4 SSE 11 15 1015.2 - 0.0 - - - - - - -
24/08:30pm 17.0 SSE 9 12 1014.8 - 0.0 - - - - - - -
24/08:00pm 16.7 SW 9 12 1014.4 - 0.0 - - - - - - -
24/07:30pm 16.6 SW 11 14 1014.1 - 0.0 - - - - - - -
24/07:00pm 16.9 SW 12 16 1013.7 - 0.0 - - - - - - -
24/06:30pm 17.7 WSW 12 16 1013.5 - 0.0 - - - - - - -
24/06:00pm 17.8 SW 10 14 1013.4 - 0.0 - - - - - - -
24/05:30pm 18.3 SW 12 14 1013.2 - 0.0 - - - - - - -
24/05:00pm 19.4 SW 10 13 1013.2 - 0.0 - - - - - - -
24/04:30pm 19.7 SW 8 10 1013.2 - 0.0 - - - - - - -
24/04:00pm 20.9 SW 9 11 1013.2 - 0.0 - - - - - - -
24/03:30pm 21.0 SW 11 13 1013.3 - 0.0 - - - - - - -
24/03:00pm 21.9 SW 9 12 1013.4 - 0.0 - - - - - - -
24/02:30pm 21.2 SW 9 12 1013.7 - 0.0 - - - - - - -
24/02:00pm 22.1 SW 9 12 1014.1 - 0.0 - - - - - - -
24/01:30pm 21.6 SW 8 10 1014.2 - 0.0 - - - - - - -
24/01:00pm 19.9 SSW 7 9 1014.0 - 0.0 - - - - - - -
24/12:30pm 20.4 SSW 6 8 1013.8 - 0.0 - - - - - - -
24/12:00pm 19.8 SSW 5 7 1014.1 - 0.0 - - - - - - -
24/11:30am 20.3 S 6 8 1014.1 - 0.0 - - - - - - -
24/11:00am 19.3 S 6 8 1014.2 - 0.0 - - - - - - -
24/10:30am 19.6 SSW 6 8 1014.2 - 0.0 - - - - - - -
24/10:00am 23.2 NNW 6 9 1014.3 - 0.0 - - - - - - -
24/09:30am 20.6 NNW 3 5 1014.2 - 0.0 - - - - - - -
24/09:00am 18.8 N 4 6 1014.2 - 0.0 - - - - - - -
24/08:30am 17.0 N 4 6 1014.3 - 0.0 - - - - - - -
24/08:00am 15.5 NNE 2 3 1014.0 - 0.0 - - - - - - -
24/07:30am 14.5 E 2 3 1013.6 - 0.0 - - - - - - -
24/07:00am 13.3 SSE 2 3 1013.3 - 0.0 - - - - - - -
24/06:30am 12.5 NE 3 4 1012.9 - 0.0 - - - - - - -
24/06:00am 12.1 N 2 3 1012.6 - 0.0 - - - - - - -
24/05:30am 12.0 NNW 3 4 1012.7 - 0.0 - - - - - - -
24/05:00am 11.9 N 7 8 1012.6 - 0.0 - - - - - - -
24/04:30am 12.2 N 5 6 1012.2 - 0.0 - - - - - - -
24/04:00am 13.3 NNE 6 7 1012.0 - 0.0 - - - - - - -
24/03:30am 14.4 NE 10 12 1011.9 - 0.0 - - - - - - -
24/03:00am 14.5 ENE 10 12 1011.9 - 0.0 - - - - - - -
24/02:30am 14.2 ENE 8 10 1012.4 - 0.0 - - - - - - -
24/02:00am 13.9 ENE 7 9 1013.2 - 0.0 - - - - - - -
24/01:30am 11.9 N 4 5 1014.1 - 0.0 - - - - - - -
24/01:00am 13.0 N 5 8 1014.6 - 0.0 - - - - - - -
24/12:30am 14.8 E 8 10 1014.5 - 0.0 - - - - - - -
24/12:00am 14.8 E 7 9 1014.5 - 0.0 - - - - - - -
 
Date/Time
CDT
Temp

°C
Wind Pressure Rain
since 9am
mm
Weather Cloud Vis
km
Sea
Height
m
Swell
Dir
 
Speed
knots
Gust
knots
hPa Trend Height
m
Period
s
Dir
23/11:30pm 14.6 ESE 8 10 1014.9 - 0.0 - - - - - - -
23/11:00pm 14.9 SE 6 7 1015.1 - 0.0 - - - - - - -
23/10:30pm 15.0 SSE 6 7 1015.3 - 0.0 - - - - - - -
23/10:00pm 14.9 S 5 7 1015.6 - 0.0 - - - - - - -
23/09:30pm 14.9 SW 6 7 1015.6 - 0.0 - - - - - - -
23/09:00pm 14.8 SW 6 7 1015.5 - 0.0 - - - - - - -
23/08:30pm 14.8 SW 6 8 1015.3 - 0.0 - - - - - - -
23/08:00pm 14.8 SW 7 10 1015.5 - 0.0 - - - - - - -
23/07:30pm 15.2 WSW 9 11 1015.8 - 0.0 - - - - - - -
23/07:00pm 16.4 SW 8 11 1015.5 - 0.0 - - - - - - -
23/06:30pm 17.3 SW 7 9 1015.5 - 0.0 - - - - - - -
23/06:00pm 17.6 SW 5 7 1015.5 - 0.0 - - - - - - -
23/05:30pm 17.8 SSW 4 5 1015.4 - 0.0 - - - - - - -
23/05:00pm 17.7 S 3 4 1015.3 - 0.0 - - - - - - -

Other Formats:

Comma delimited format used in spreadsheet applications
http://www.bom.gov.au/fwo/IDS60701/IDS60701.95806.axf

JavaScript Object Notation format (JSON) in row-major order
http://www.bom.gov.au/fwo/IDS60701/IDS60701.95806.json